Terminal Aerodrome Forecast
Issued by NWS

Current Version | Previous Version | Text Only | Print | Product List | Glossary On
Versions: 1 2 3 4 5 6 7 8 9 10 11 12 13 14 15 16 17 18 19 20 21 22 23 24 25 26 27 28 29 30
000
FTUS42 KGSP 032327
TAFHKY
TAF
KHKY 032327Z 0400/0424 08003KT P6SM OVC150
     FM040600 08003KT P6SM VCSH OVC060
     FM040900 07003KT 6SM -RA BR OVC035
     FM041300 08003KT 4SM -RA BR OVC025
     FM041600 10004KT 2SM -RA BR OVC015=

USA.gov is the U.S. government's official web portal to all federal, state and local government web resources and services.